Morrisdale, PA (16858)

1:18 PM EDT on August 27, 2016 (GMT -0400)
Winburne | | Change Station

Elev 1457 ft 40.96 °N, 78.14 °W | Updated 7 minutes ago

Partly Cloudy
Partly Cloudy
83.5 °F
Feels Like 86 °F
N
3.7
Wind Variable Wind from ESE

Today
High -- | Low -- °F
--% Chance of Precip.
Yesterday
High -- | Low -- °F
Precip. -- in
Pressure 30.20 in
Visibility 10.0 miles
Clouds Few 3900 ft
Heat Index 86 °F
Dew Point 68 °F
Humidity 59%
Rainfall 0.00 in
Snow Depth Not available.
6:35 AM 7:52 PM
Waning Crescent, 23% visible
METAR KFIG 271654Z AUTO VRB03KT 10SM FEW039 29/18 A3023 RMK AO2 SLP226 T02890178
Pressure 30.20 in
Visibility 10.0 miles
Clouds Few 3900 ft
Heat Index 86 °F
Dew Point 68 °F
Humidity 59%
Rainfall 0.00 in
Snow Depth Not available.
6:35 AM 7:52 PM
Waning Crescent, 23% visible
METAR KFIG 271654Z AUTO VRB03KT 10SM FEW039 29/18 A3023 RMK AO2 SLP226 T02890178

10-Day Weather Forecast

Almanac

Astronomy

Aug. 27, 2016 Rise Set
Actual Time
Civil Twilight
Nautical Twilight
Astronomical Twilight
Moon
Length of Visible Light
Length of Day
Tomorrow will be .
, % of the Moon is Illuminated

Today's Extremes

State Highs State Lows

Community

WunderPhotos

Upload Photos

1,935,386 photos uploaded!

WunderBlog® & News

Nearby

Air Quality

  Air Quality AQ Index Pollutant
Not available.

Snow Depth

Station Depth Elevation

Earthquake Activity

City Distance Mag. Time & Date
Minimum magnitude displayed is 2.5.

Coastal Water Temperatures

Place Temperature

Stations

Nearby Weather Stations

Station Location Temp. Windchill Dew Point Humidity Wind Precip. Elev Updated Type
                   

Watches & Warnings

There are currently no watches in effect.